Holt (Pine Ridge), New South Wales

9:47 AM AEST on July 28, 2016 (GMT +1000)
Holt | | Change Station

Elev 1972 ft 35.23 °S, 149.01 °E | Updated 1 second ago

Partly Cloudy
Partly Cloudy
42.8 °F
Feels Like 43 °F
N
0.4
Wind Variable Wind from North
Gusts 2.5 mph

Today
High -- | Low -- °F
--% Chance of Precip.
Yesterday
High -- | Low -- °F
Precip. -- in
Pressure 30.24 in
Visibility 6.2 miles
Clouds Few 2000 ft
Windchill 43 °F
Dew Point 32 °F
Humidity 67%
Rainfall 0.00 in
Snow Depth Not available.
7:02 AM 5:19 PM
Last Quarter, 38% visible
METAR YSCB 272330Z 34007KT 9999 FEW020 07/02 Q1024 NOSIG
Pressure 30.24 in
Visibility 6.2 miles
Clouds Few 2000 ft
Windchill 43 °F
Dew Point 32 °F
Humidity 67%
Rainfall 0.00 in
Snow Depth Not available.
7:02 AM 5:19 PM
Last Quarter, 38% visible
METAR YSCB 272330Z 34007KT 9999 FEW020 07/02 Q1024 NOSIG

10-Day Weather Forecast

Almanac

Astronomy

Jul. 28, 2016 Rise Set
Actual Time
Civil Twilight
Nautical Twilight
Astronomical Twilight
Moon
Length of Visible Light
Length of Day
Tomorrow will be .
, % of the Moon is Illuminated

Today's Extremes

Country Highs Country Lows

Community

WunderPhotos

Upload Photos

1,927,958 photos uploaded!

WunderBlog® & News

Nearby

Air Quality

  Air Quality AQ Index Pollutant
Not available.

Snow Depth

Station Depth Elevation

Earthquake Activity

City Distance Mag. Time & Date
Minimum magnitude displayed is 2.5.

Coastal Water Temperatures

Place Temperature

Stations

Nearby Weather Stations

Station Location Temp. Windchill Dew Point Humidity Wind Precip. Elev Updated Type